createdAt,value
2023-05-09T00:00:48.373Z,7.55
2023-05-09T00:03:15.479Z,8.70
2023-05-09T00:05:42.477Z,8.35
2023-05-09T00:08:09.465Z,8.18
2023-05-09T00:10:37.097Z,7.35
2023-05-09T00:13:04.225Z,8.35
2023-05-09T00:15:31.959Z,7.93
2023-05-09T00:17:59.409Z,8.60
2023-05-09T00:20:26.456Z,8.38
2023-05-09T00:22:53.407Z,8.52
2023-05-09T00:25:20.396Z,8.98
2023-05-09T00:27:47.456Z,8.88
2023-05-09T00:30:14.407Z,8.32
2023-05-09T00:32:41.719Z,7.75
2023-05-09T00:35:09.964Z,7.90
2023-05-09T00:37:37.212Z,7.50
2023-05-09T00:40:06.554Z,7.93
2023-05-09T00:42:33.859Z,8.25
2023-05-09T00:45:00.870Z,7.82
2023-05-09T00:47:28.926Z,8.40
2023-05-09T00:49:57.994Z,7.32
2023-05-09T00:52:26.531Z,7.72
2023-05-09T00:54:54.781Z,8.48
2023-05-09T00:57:22.796Z,8.25
2023-05-09T00:59:50.213Z,8.15
2023-05-09T01:02:20.228Z,8.05
2023-05-09T01:04:47.700Z,8.00
2023-05-09T01:07:46.050Z,8.93
2023-05-09T01:10:59.087Z,8.35
2023-05-09T01:13:32.645Z,7.75
2023-05-09T01:16:27.690Z,7.75
2023-05-09T01:19:46.492Z,8.02
2023-05-09T01:22:16.359Z,8.00
2023-05-09T01:25:11.907Z,8.63
2023-05-09T01:28:16.433Z,6.72
2023-05-09T01:30:46.703Z,7.38
2023-05-09T01:33:19.330Z,7.38
2023-05-09T01:35:58.506Z,7.85
2023-05-09T01:38:26.519Z,7.55
2023-05-09T01:40:56.960Z,6.78
2023-05-09T01:43:27.735Z,6.63
2023-05-09T01:45:56.317Z,7.82
2023-05-09T01:48:26.367Z,7.05
2023-05-09T01:50:54.884Z,7.05
2023-05-09T01:53:23.271Z,7.55
2023-05-09T01:55:52.603Z,6.53
2023-05-09T01:58:21.053Z,6.45
2023-05-09T02:00:49.015Z,7.07
2023-05-09T02:03:16.101Z,7.45
2023-05-09T02:05:44.213Z,6.82
2023-05-09T02:08:14.287Z,6.70
2023-05-09T02:10:41.959Z,6.82
2023-05-09T02:13:08.916Z,7.40
2023-05-09T02:15:35.950Z,7.13
2023-05-09T02:18:02.922Z,7.35
2023-05-09T02:20:29.895Z,6.22
2023-05-09T02:22:56.995Z,6.20
2023-05-09T02:25:24.199Z,6.95
2023-05-09T02:27:52.278Z,6.47
2023-05-09T02:30:25.416Z,5.32
2023-05-09T02:32:59.064Z,6.47
2023-05-09T02:35:28.326Z,6.20
2023-05-09T02:37:56.338Z,6.97
2023-05-09T02:40:24.762Z,6.25
2023-05-09T02:42:51.721Z,6.90
2023-05-09T02:45:18.685Z,5.70
2023-05-09T02:47:45.706Z,6.68
2023-05-09T02:50:12.870Z,6.40
2023-05-09T02:52:39.977Z,6.35
2023-05-09T02:55:07.746Z,6.20
2023-05-09T02:57:38.142Z,6.50
2023-05-09T03:00:09.613Z,5.82
2023-05-09T03:02:38.023Z,5.68
2023-05-09T03:05:08.563Z,6.28
2023-05-09T03:07:37.035Z,6.20
2023-05-09T03:10:04.680Z,5.97
2023-05-09T03:12:31.906Z,5.45
2023-05-09T03:14:59.003Z,5.97
2023-05-09T03:17:26.170Z,6.03
2023-05-09T03:19:53.206Z,5.55
2023-05-09T03:22:20.880Z,5.35
2023-05-09T03:24:56.592Z,5.53
2023-05-09T03:27:23.601Z,6.35
2023-05-09T03:29:51.170Z,6.03
2023-05-09T03:32:19.560Z,5.95
2023-05-09T03:34:46.509Z,6.57
2023-05-09T03:37:13.574Z,6.70
2023-05-09T03:39:41.615Z,6.35
2023-05-09T03:42:08.537Z,7.75
2023-05-09T03:44:35.876Z,6.82
2023-05-09T03:47:02.784Z,6.53
2023-05-09T03:49:36.288Z,6.78
2023-05-09T03:52:04.088Z,7.32
2023-05-09T03:54:31.454Z,7.32
2023-05-09T03:56:58.384Z,7.47
2023-05-09T03:59:25.327Z,7.80
2023-05-09T04:01:52.382Z,6.22
2023-05-09T04:04:19.483Z,7.03
2023-05-09T04:06:47.028Z,6.78
2023-05-09T04:09:16.483Z,6.93
2023-05-09T04:11:43.393Z,7.07
2023-05-09T04:14:12.460Z,6.97
2023-05-09T04:16:39.983Z,6.57
2023-05-09T04:19:07.223Z,7.72
2023-05-09T04:21:35.360Z,7.72
2023-05-09T04:24:03.578Z,7.93
2023-05-09T04:26:41.582Z,7.30
2023-05-09T04:29:12.106Z,7.85
2023-05-09T04:31:39.441Z,7.32
2023-05-09T04:34:08.162Z,7.65
2023-05-09T04:36:37.613Z,7.28
2023-05-09T04:39:08.279Z,7.43
2023-05-09T04:41:36.180Z,7.85
2023-05-09T04:44:03.291Z,7.35
2023-05-09T04:46:30.379Z,6.97
2023-05-09T04:48:57.891Z,6.80
2023-05-09T04:51:24.791Z,7.20
2023-05-09T04:53:51.711Z,7.22
2023-05-09T04:56:21.755Z,7.00
2023-05-09T04:58:49.380Z,7.90
2023-05-09T05:01:16.774Z,7.57
2023-05-09T05:03:44.583Z,7.72
2023-05-09T05:06:11.616Z,7.78
2023-05-09T05:08:41.031Z,8.15
2023-05-09T05:11:08.966Z,8.38
2023-05-09T05:13:35.997Z,8.00
2023-05-09T05:16:03.318Z,7.82
2023-05-09T05:18:30.279Z,7.97
2023-05-09T05:20:57.229Z,7.88
2023-05-09T05:23:25.708Z,8.00
2023-05-09T05:25:54.370Z,7.10
2023-05-09T05:28:21.294Z,7.28
2023-05-09T05:30:48.191Z,8.13
2023-05-09T05:33:15.125Z,7.45
2023-05-09T05:35:42.084Z,7.07
2023-05-09T05:38:09.075Z,7.93
2023-05-09T05:40:36.598Z,7.50
2023-05-09T05:43:05.801Z,7.38
2023-05-09T05:45:34.233Z,7.45
2023-05-09T05:48:03.903Z,7.75
2023-05-09T05:50:32.009Z,8.00
2023-05-09T05:52:59.689Z,7.85
2023-05-09T05:55:26.733Z,8.40
2023-05-09T05:57:53.717Z,8.43
2023-05-09T06:00:20.840Z,7.88
2023-05-09T06:02:55.060Z,7.40
2023-05-09T06:05:27.611Z,7.15
2023-05-09T06:07:54.523Z,7.45
2023-05-09T06:10:21.482Z,7.72
2023-05-09T06:12:48.528Z,8.48
2023-05-09T06:15:16.049Z,8.68
2023-05-09T06:17:46.473Z,8.75
2023-05-09T06:20:13.398Z,8.38
2023-05-09T06:22:40.468Z,8.65
2023-05-09T06:25:10.132Z,8.73
2023-05-09T06:27:38.342Z,9.57
2023-05-09T06:30:23.780Z,9.88
2023-05-09T06:32:52.180Z,9.15
2023-05-09T06:35:19.353Z,8.00
2023-05-09T06:37:48.416Z,8.68
2023-05-09T06:40:16.452Z,8.68
2023-05-09T06:42:43.386Z,8.45
2023-05-09T06:45:11.205Z,9.20
2023-05-09T06:47:38.333Z,9.77
2023-05-09T06:50:05.949Z,9.68
2023-05-09T06:52:32.800Z,9.30
2023-05-09T06:54:59.732Z,9.90
2023-05-09T06:57:26.633Z,8.40
2023-05-09T06:59:53.573Z,9.50
2023-05-09T07:02:20.589Z,9.27
2023-05-09T07:04:47.545Z,9.07
2023-05-09T07:07:14.465Z,9.25
2023-05-09T07:09:41.393Z,9.05
2023-05-09T07:12:08.445Z,9.55
2023-05-09T07:14:35.731Z,9.10
2023-05-09T07:17:17.960Z,9.32
2023-05-09T07:19:48.589Z,10.30
2023-05-09T07:22:15.482Z,9.98
2023-05-09T07:24:44.256Z,10.82
2023-05-09T07:27:11.200Z,10.50
2023-05-09T07:29:38.192Z,9.95
2023-05-09T07:32:05.299Z,10.60
2023-05-09T07:34:32.265Z,11.00
2023-05-09T07:36:59.240Z,10.55
2023-05-09T07:39:26.301Z,12.10
2023-05-09T07:41:53.243Z,10.75
2023-05-09T07:44:20.200Z,11.05
2023-05-09T07:46:47.224Z,11.95
2023-05-09T07:49:14.145Z,11.35
2023-05-09T07:51:41.422Z,12.18
2023-05-09T07:54:10.148Z,12.10
2023-05-09T07:56:37.265Z,12.27
2023-05-09T07:59:04.242Z,11.57
2023-05-09T08:01:31.315Z,11.57
2023-05-09T08:03:59.091Z,11.50
2023-05-09T08:06:26.451Z,11.63
2023-05-09T08:08:53.334Z,12.18
2023-05-09T08:11:20.297Z,10.43
2023-05-09T08:13:48.137Z,11.02
2023-05-09T08:16:17.269Z,10.32
2023-05-09T08:18:44.572Z,10.23
2023-05-09T08:21:11.569Z,10.60
2023-05-09T08:23:38.588Z,11.85
2023-05-09T08:26:05.475Z,12.82
2023-05-09T08:28:32.536Z,12.70
2023-05-09T08:30:59.638Z,12.93
2023-05-09T08:33:26.635Z,10.75
2023-05-09T08:35:54.460Z,12.38
2023-05-09T08:38:22.066Z,11.05
2023-05-09T08:40:49.009Z,12.27
2023-05-09T08:43:20.248Z,11.63
2023-05-09T08:45:52.333Z,11.52
2023-05-09T08:48:19.702Z,12.30
2023-05-09T08:50:47.660Z,13.60
2023-05-09T08:53:15.128Z,12.13
2023-05-09T08:55:42.313Z,13.18
2023-05-09T08:58:14.636Z,12.15
2023-05-09T09:00:42.054Z,14.27
2023-05-09T09:03:09.087Z,13.52
2023-05-09T09:05:41.440Z,13.55
2023-05-09T09:08:10.239Z,13.63
2023-05-09T09:10:47.342Z,13.23
2023-05-09T09:13:16.262Z,12.45
2023-05-09T09:15:46.348Z,12.75
2023-05-09T09:18:20.535Z,12.63
2023-05-09T09:21:10.035Z,12.70
2023-05-09T09:23:40.845Z,12.57
2023-05-09T09:26:08.065Z,12.48
2023-05-09T09:28:35.846Z,13.10
2023-05-09T09:31:02.771Z,13.70
2023-05-09T09:33:29.954Z,13.30
2023-05-09T09:35:57.693Z,13.27
2023-05-09T09:38:25.080Z,12.75
2023-05-09T09:40:51.896Z,12.27
2023-05-09T09:43:19.390Z,12.13
2023-05-09T09:45:52.994Z,12.18
2023-05-09T09:48:28.305Z,11.60
2023-05-09T09:50:59.476Z,12.70
2023-05-09T09:53:30.348Z,13.23
2023-05-09T09:55:57.515Z,13.15
2023-05-09T09:58:27.168Z,12.13
2023-05-09T10:01:20.052Z,13.18
2023-05-09T10:03:47.938Z,13.85
2023-05-09T10:06:16.481Z,13.88
2023-05-09T10:08:49.093Z,12.80
2023-05-09T10:11:16.420Z,12.10
2023-05-09T10:13:44.481Z,11.48
2023-05-09T10:16:12.802Z,12.38
2023-05-09T10:18:42.602Z,13.27
2023-05-09T10:21:14.688Z,12.60
2023-05-09T10:23:46.954Z,12.52
2023-05-09T10:26:28.913Z,12.38
2023-05-09T10:28:58.019Z,12.95
2023-05-09T10:31:29.670Z,12.07
2023-05-09T10:33:57.119Z,12.55
2023-05-09T10:36:24.833Z,12.27
2023-05-09T10:38:54.891Z,12.80
2023-05-09T10:41:22.677Z,13.95
2023-05-09T10:43:50.080Z,13.27
2023-05-09T10:46:17.710Z,13.60
2023-05-09T10:48:45.617Z,12.45
2023-05-09T10:51:13.284Z,13.30
2023-05-09T10:53:49.819Z,13.00
2023-05-09T10:56:29.554Z,12.93
2023-05-09T10:58:57.348Z,13.43
2023-05-09T11:01:38.857Z,13.40
2023-05-09T11:04:14.460Z,12.60
2023-05-09T11:06:52.375Z,61.50
2023-05-09T11:09:41.371Z,12.45
2023-05-09T11:12:13.134Z,14.52
2023-05-09T11:14:48.950Z,12.80
2023-05-09T11:19:51.712Z,13.57
2023-05-09T11:22:28.691Z,12.88
2023-05-09T11:25:08.408Z,13.85
2023-05-09T11:27:43.749Z,12.80
2023-05-09T11:30:17.083Z,14.48
2023-05-09T11:32:58.992Z,13.48
2023-05-09T11:35:27.339Z,14.35
2023-05-09T11:38:06.842Z,13.38
2023-05-09T11:40:35.192Z,13.30
2023-05-09T11:43:02.660Z,13.82
2023-05-09T11:45:32.607Z,13.13
2023-05-09T11:48:01.060Z,13.68
2023-05-09T11:50:28.800Z,12.52
2023-05-09T11:52:55.952Z,13.65
2023-05-09T11:55:23.265Z,14.02
2023-05-09T11:57:54.627Z,13.40
2023-05-09T12:00:26.368Z,12.60
2023-05-09T12:02:53.826Z,13.52
2023-05-09T12:05:23.206Z,13.43
2023-05-09T12:10:21.967Z,12.43
2023-05-09T12:12:51.582Z,13.27
2023-05-09T12:15:20.094Z,12.82
2023-05-09T12:17:50.490Z,12.20
2023-05-09T12:20:18.968Z,12.60
2023-05-09T12:22:55.011Z,13.25
2023-05-09T12:25:22.672Z,13.27
2023-05-09T12:27:49.644Z,12.70
2023-05-09T12:30:18.528Z,13.63
2023-05-09T12:32:46.578Z,13.40
2023-05-09T12:35:13.703Z,14.90
2023-05-09T12:37:40.800Z,13.02
2023-05-09T12:40:12.968Z,12.80
2023-05-09T12:42:43.964Z,13.55
2023-05-09T12:45:12.002Z,13.60
2023-05-09T12:47:39.219Z,14.48
2023-05-09T12:50:07.636Z,14.27
2023-05-09T12:52:43.989Z,12.88
2023-05-09T12:55:20.130Z,13.23
2023-05-09T12:58:03.704Z,12.52
2023-05-09T13:00:46.273Z,13.73
2023-05-09T13:03:31.054Z,14.35
2023-05-09T13:06:01.491Z,14.85
2023-05-09T13:08:29.209Z,14.70
2023-05-09T13:11:14.724Z,12.80
2023-05-09T13:13:42.919Z,13.52
2023-05-09T13:16:11.204Z,12.90
2023-05-09T13:18:39.040Z,13.90
2023-05-09T13:21:05.954Z,13.93
2023-05-09T13:23:32.871Z,13.48
2023-05-09T13:25:59.799Z,14.10
2023-05-09T13:28:26.724Z,13.43
2023-05-09T13:30:53.682Z,13.10
2023-05-09T13:35:51.303Z,12.52
2023-05-09T13:38:18.220Z,12.75
2023-05-09T13:40:45.179Z,12.65
2023-05-09T13:43:12.081Z,11.68
2023-05-09T13:45:39.163Z,13.40
2023-05-09T13:48:06.367Z,13.02
2023-05-09T13:50:33.910Z,13.32
2023-05-09T13:53:00.877Z,12.75
2023-05-09T13:55:27.821Z,12.23
2023-05-09T13:57:57.675Z,12.13
2023-05-09T14:00:26.503Z,12.20
2023-05-09T14:02:53.524Z,12.38
2023-05-09T14:05:20.544Z,12.38
2023-05-09T14:07:47.473Z,12.30
2023-05-09T14:10:14.407Z,12.57
2023-05-09T14:12:44.278Z,11.95
2023-05-09T14:15:11.493Z,11.85
2023-05-09T14:17:39.638Z,12.38
2023-05-09T14:20:08.126Z,10.40
2023-05-09T14:22:35.117Z,11.20
2023-05-09T14:25:02.244Z,12.10
2023-05-09T14:27:30.015Z,12.30
2023-05-09T14:29:57.447Z,11.98
2023-05-09T14:32:25.299Z,11.68
2023-05-09T14:34:52.207Z,11.98
2023-05-09T14:37:19.192Z,12.57
2023-05-09T14:39:46.738Z,12.95
2023-05-09T14:42:14.141Z,12.32
2023-05-09T14:44:42.007Z,12.30
2023-05-09T14:47:09.589Z,12.63
2023-05-09T14:49:38.621Z,12.20
2023-05-09T14:52:05.923Z,12.32
2023-05-09T14:54:32.905Z,11.95
2023-05-09T14:57:01.865Z,12.57
2023-05-09T14:59:29.562Z,12.27
2023-05-09T15:01:56.550Z,13.43
2023-05-09T15:04:28.108Z,11.55
2023-05-09T15:06:55.151Z,11.63
2023-05-09T15:09:22.579Z,11.65
2023-05-09T15:11:49.673Z,12.25
2023-05-09T15:14:17.031Z,11.57
2023-05-09T15:16:44.337Z,11.30
2023-05-09T15:19:11.523Z,11.68
2023-05-09T15:21:38.579Z,11.88
2023-05-09T15:24:06.202Z,11.70
2023-05-09T15:26:33.240Z,12.35
2023-05-09T15:29:00.128Z,12.05
2023-05-09T15:31:33.437Z,12.13
2023-05-09T15:34:01.948Z,13.02
2023-05-09T15:36:33.735Z,12.48
2023-05-09T15:39:00.764Z,12.10
2023-05-09T15:41:28.608Z,13.50
2023-05-09T15:43:55.566Z,12.45
2023-05-09T15:46:27.175Z,15.52
2023-05-09T15:48:56.136Z,15.38
2023-05-09T15:51:23.135Z,14.38
2023-05-09T15:53:50.128Z,12.68
2023-05-09T15:56:17.186Z,15.32
2023-05-09T15:58:44.085Z,18.52
2023-05-09T16:01:13.016Z,21.80
2023-05-09T16:03:40.582Z,16.60
2023-05-09T16:06:07.794Z,17.83
2023-05-09T16:08:34.713Z,13.43
2023-05-09T16:11:02.019Z,13.38
2023-05-09T16:13:30.030Z,12.63
2023-05-09T16:15:57.154Z,12.18
2023-05-09T16:18:24.173Z,12.57
2023-05-09T16:20:51.368Z,12.40
2023-05-09T16:23:18.297Z,12.43
2023-05-09T16:25:45.244Z,12.15
2023-05-09T16:28:12.389Z,11.20
2023-05-09T16:30:39.259Z,11.90
2023-05-09T16:33:06.191Z,10.98
2023-05-09T16:35:33.869Z,11.52
2023-05-09T16:38:00.832Z,11.00
2023-05-09T16:40:28.489Z,12.07
2023-05-09T16:42:55.467Z,11.88
2023-05-09T16:45:22.514Z,11.70
2023-05-09T16:47:51.037Z,11.73
2023-05-09T16:50:18.143Z,12.07
2023-05-09T16:52:47.834Z,12.48
2023-05-09T16:55:14.837Z,12.18
2023-05-09T16:57:41.784Z,11.60
2023-05-09T17:00:10.079Z,12.68
2023-05-09T17:02:37.199Z,11.30
2023-05-09T17:05:04.966Z,10.70
2023-05-09T17:07:32.218Z,11.68
2023-05-09T17:09:59.247Z,10.70
2023-05-09T17:12:27.564Z,11.52
2023-05-09T17:14:54.583Z,10.93
2023-05-09T17:17:21.518Z,11.80
2023-05-09T17:19:48.525Z,11.05
2023-05-09T17:22:15.465Z,11.05
2023-05-09T17:24:42.406Z,11.02
2023-05-09T17:27:10.757Z,10.43
2023-05-09T17:29:37.818Z,11.05
2023-05-09T17:32:05.023Z,10.95
2023-05-09T17:34:32.292Z,12.27
2023-05-09T17:37:02.024Z,11.45
2023-05-09T17:39:29.177Z,12.60
2023-05-09T17:41:56.163Z,13.25
2023-05-09T17:44:23.059Z,12.75
2023-05-09T17:46:50.662Z,14.70
2023-05-09T17:49:19.229Z,14.20
2023-05-09T17:51:46.197Z,15.82
2023-05-09T17:54:14.353Z,17.77
2023-05-09T17:56:41.419Z,12.27
2023-05-09T17:59:08.419Z,12.02
2023-05-09T18:01:35.575Z,14.05
2023-05-09T18:04:02.858Z,11.18
2023-05-09T18:06:29.805Z,12.15
2023-05-09T18:08:56.762Z,11.43
2023-05-09T18:11:24.527Z,11.70
2023-05-09T18:13:51.537Z,11.60
2023-05-09T18:16:18.449Z,10.63
2023-05-09T18:18:45.394Z,9.93
2023-05-09T18:21:12.460Z,10.50
2023-05-09T18:23:40.204Z,8.90
2023-05-09T18:26:08.018Z,8.10
2023-05-09T18:28:41.014Z,8.02
2023-05-09T18:31:09.664Z,7.72
2023-05-09T18:33:38.315Z,6.90
2023-05-09T18:36:10.358Z,6.90
2023-05-09T18:38:38.988Z,5.88
2023-05-09T18:41:12.253Z,5.50
2023-05-09T18:43:45.700Z,5.68
2023-05-09T18:46:17.642Z,5.68
2023-05-09T18:48:46.304Z,5.22
2023-05-09T18:51:13.318Z,5.30
2023-05-09T18:53:43.536Z,5.50
2023-05-09T18:56:10.648Z,5.22
2023-05-09T18:58:38.090Z,5.43
2023-05-09T19:01:05.550Z,6.25
2023-05-09T19:03:32.565Z,5.97
2023-05-09T19:05:59.984Z,7.78
2023-05-09T19:08:27.531Z,6.97
2023-05-09T19:10:54.450Z,6.43
2023-05-09T19:13:21.464Z,6.50
2023-05-09T19:15:48.528Z,6.93
2023-05-09T19:18:15.455Z,7.35
2023-05-09T19:20:42.328Z,7.38
2023-05-09T19:23:09.305Z,7.03
2023-05-09T19:25:37.065Z,6.93
2023-05-09T19:28:04.130Z,6.65
2023-05-09T19:30:31.143Z,6.35
2023-05-09T19:32:58.104Z,6.53
2023-05-09T19:35:25.450Z,6.80
2023-05-09T19:37:52.398Z,6.93
2023-05-09T19:40:19.411Z,6.55
2023-05-09T19:42:46.340Z,6.00
2023-05-09T19:45:13.260Z,5.70
2023-05-09T19:47:40.253Z,7.50
2023-05-09T19:50:08.262Z,5.72
2023-05-09T19:52:37.304Z,5.45
2023-05-09T19:55:05.886Z,6.07
2023-05-09T19:57:33.166Z,5.78
2023-05-09T20:00:00.049Z,6.20
2023-05-09T20:02:27.261Z,5.88
2023-05-09T20:04:54.454Z,5.88
2023-05-09T20:07:21.420Z,5.85
2023-05-09T20:09:48.720Z,6.80
2023-05-09T20:12:15.596Z,6.80
2023-05-09T20:14:42.693Z,6.85
2023-05-09T20:17:09.708Z,6.13
2023-05-09T20:19:36.792Z,6.32
2023-05-09T20:22:04.088Z,7.15
2023-05-09T20:24:31.371Z,6.60
2023-05-09T20:26:58.288Z,6.38
2023-05-09T20:29:25.855Z,7.05
2023-05-09T20:31:52.847Z,6.97
2023-05-09T20:34:21.407Z,7.13
2023-05-09T20:36:52.199Z,6.45
2023-05-09T20:39:20.425Z,6.03
2023-05-09T20:41:48.938Z,6.97
2023-05-09T20:44:17.697Z,6.35
2023-05-09T20:46:45.655Z,7.50
2023-05-09T20:49:12.757Z,7.85
2023-05-09T20:51:39.712Z,7.05
2023-05-09T20:54:06.833Z,6.65
2023-05-09T20:56:35.390Z,6.78
2023-05-09T20:59:03.985Z,7.03
2023-05-09T21:01:32.589Z,7.15
2023-05-09T21:03:59.800Z,6.47
2023-05-09T21:06:26.801Z,7.40
2023-05-09T21:08:53.826Z,8.45
2023-05-09T21:11:21.896Z,8.13
2023-05-09T21:13:49.093Z,7.15
2023-05-09T21:16:16.120Z,8.13
2023-05-09T21:18:43.577Z,9.07
2023-05-09T21:21:11.321Z,8.23
2023-05-09T21:23:49.552Z,8.35
2023-05-09T21:26:16.830Z,6.75
2023-05-09T21:28:44.077Z,12.57
2023-05-09T21:31:11.575Z,9.25
2023-05-09T21:33:38.729Z,8.85
2023-05-09T21:36:06.198Z,9.00
2023-05-09T21:38:33.113Z,8.32
2023-05-09T21:41:00.026Z,9.07
2023-05-09T21:43:28.499Z,8.70
2023-05-09T21:45:56.245Z,9.05
2023-05-09T21:48:23.268Z,7.90
2023-05-09T21:50:50.244Z,7.72
2023-05-09T21:53:18.495Z,9.07
2023-05-09T21:55:45.556Z,8.10
2023-05-09T21:58:12.464Z,8.20
2023-05-09T22:00:39.374Z,9.48
2023-05-09T22:03:06.454Z,7.88
2023-05-09T22:05:33.461Z,8.48
2023-05-09T22:08:00.313Z,8.07
2023-05-09T22:10:27.215Z,8.32
2023-05-09T22:12:54.483Z,8.90
2023-05-09T22:15:21.385Z,7.70
2023-05-09T22:17:48.323Z,8.55
2023-05-09T22:20:16.371Z,7.47
2023-05-09T22:22:43.447Z,7.82
2023-05-09T22:25:10.591Z,8.32
2023-05-09T22:27:37.489Z,8.52
2023-05-09T22:30:05.995Z,8.90
2023-05-09T22:32:33.051Z,7.68
2023-05-09T22:34:59.963Z,7.35
2023-05-09T22:37:27.153Z,8.25
2023-05-09T22:39:54.069Z,7.28
2023-05-09T22:42:21.236Z,8.13
2023-05-09T22:44:49.706Z,9.27
2023-05-09T22:47:16.952Z,7.95
2023-05-09T22:49:45.769Z,8.60
2023-05-09T22:52:13.144Z,8.48
2023-05-09T22:54:40.588Z,8.95
2023-05-09T22:57:07.480Z,7.90
2023-05-09T22:59:34.910Z,9.95
2023-05-09T23:02:01.839Z,9.55
2023-05-09T23:04:28.840Z,9.02
2023-05-09T23:06:56.122Z,9.30
2023-05-09T23:09:23.314Z,9.40
2023-05-09T23:11:50.378Z,8.98
2023-05-09T23:14:17.412Z,9.75
2023-05-09T23:16:44.704Z,10.43
2023-05-09T23:19:11.626Z,10.32
2023-05-09T23:21:38.630Z,9.82
2023-05-09T23:24:05.803Z,10.00
2023-05-09T23:26:33.127Z,8.95
2023-05-09T23:29:00.047Z,10.55
2023-05-09T23:31:27.066Z,10.20
2023-05-09T23:33:56.999Z,9.27
2023-05-09T23:36:23.894Z,9.70
2023-05-09T23:38:50.942Z,10.05
2023-05-09T23:41:17.815Z,9.35
2023-05-09T23:43:44.891Z,10.02
2023-05-09T23:46:11.811Z,10.80
2023-05-09T23:48:39.030Z,10.10
2023-05-09T23:51:05.984Z,10.15
2023-05-09T23:53:35.032Z,11.10
2023-05-09T23:56:02.958Z,10.48
2023-05-09T23:58:29.891Z,11.05
